sensor_id;sensor_type;location;lat;lon;timestamp;temperature;humidity
39751;DHT22;37579;51.074;17.004;2022-12-24T00:02:10;24.10;65.80
39751;DHT22;37579;51.074;17.004;2022-12-24T00:04:35;24.20;65.80
39751;DHT22;37579;51.074;17.004;2022-12-24T00:07:01;24.10;65.80
39751;DHT22;37579;51.074;17.004;2022-12-24T00:09:27;24.10;65.70
39751;DHT22;37579;51.074;17.004;2022-12-24T00:11:53;24.10;65.70
39751;DHT22;37579;51.074;17.004;2022-12-24T00:14:19;24.10;65.70
39751;DHT22;37579;51.074;17.004;2022-12-24T00:16:45;24.10;65.60
39751;DHT22;37579;51.074;17.004;2022-12-24T00:19:11;24.10;65.50
39751;DHT22;37579;51.074;17.004;2022-12-24T00:21:37;24.10;65.40
39751;DHT22;37579;51.074;17.004;2022-12-24T00:24:03;24.20;65.40
39751;DHT22;37579;51.074;17.004;2022-12-24T00:26:31;24.20;65.20
39751;DHT22;37579;51.074;17.004;2022-12-24T00:28:57;24.20;65.10
39751;DHT22;37579;51.074;17.004;2022-12-24T00:31:23;24.20;65.10
39751;DHT22;37579;51.074;17.004;2022-12-24T00:33:49;24.20;65.00
39751;DHT22;37579;51.074;17.004;2022-12-24T00:36:16;24.20;65.00
39751;DHT22;37579;51.074;17.004;2022-12-24T00:38:42;24.20;65.00
39751;DHT22;37579;51.074;17.004;2022-12-24T00:41:09;24.20;64.90
39751;DHT22;37579;51.074;17.004;2022-12-24T00:44:02;24.20;65.00
39751;DHT22;37579;51.074;17.004;2022-12-24T00:46:33;24.20;65.00
39751;DHT22;37579;51.074;17.004;2022-12-24T00:48:59;24.20;64.80
39751;DHT22;37579;51.074;17.004;2022-12-24T00:51:25;24.20;64.70
39751;DHT22;37579;51.074;17.004;2022-12-24T00:53:52;24.20;64.90
39751;DHT22;37579;51.074;17.004;2022-12-24T00:56:18;24.10;65.20
39751;DHT22;37579;51.074;17.004;2022-12-24T00:58:44;24.10;65.20
39751;DHT22;37579;51.074;17.004;2022-12-24T01:01:10;24.10;65.10
39751;DHT22;37579;51.074;17.004;2022-12-24T01:03:36;24.10;65.00
39751;DHT22;37579;51.074;17.004;2022-12-24T01:06:07;24.10;65.30
39751;DHT22;37579;51.074;17.004;2022-12-24T01:08:34;24.00;65.20
39751;DHT22;37579;51.074;17.004;2022-12-24T01:11:01;24.00;65.30
39751;DHT22;37579;51.074;17.004;2022-12-24T01:13:27;23.90;65.40
39751;DHT22;37579;51.074;17.004;2022-12-24T01:15:52;24.00;65.30
39751;DHT22;37579;51.074;17.004;2022-12-24T01:18:19;24.00;65.30
39751;DHT22;37579;51.074;17.004;2022-12-24T01:20:45;24.00;65.20
39751;DHT22;37579;51.074;17.004;2022-12-24T01:23:11;24.00;65.30
39751;DHT22;37579;51.074;17.004;2022-12-24T01:25:37;24.00;65.40
39751;DHT22;37579;51.074;17.004;2022-12-24T01:28:04;23.90;65.30
39751;DHT22;37579;51.074;17.004;2022-12-24T01:30:30;23.90;65.30
39751;DHT22;37579;51.074;17.004;2022-12-24T01:32:57;23.90;65.30
39751;DHT22;37579;51.074;17.004;2022-12-24T01:35:23;23.90;65.40
39751;DHT22;37579;51.074;17.004;2022-12-24T01:37:48;23.90;65.40
39751;DHT22;37579;51.074;17.004;2022-12-24T01:40:16;23.90;65.50
39751;DHT22;37579;51.074;17.004;2022-12-24T01:43:00;23.90;65.40
39751;DHT22;37579;51.074;17.004;2022-12-24T01:46:00;23.90;65.30
39751;DHT22;37579;51.074;17.004;2022-12-24T01:51:19;23.80;65.60
39751;DHT22;37579;51.074;17.004;2022-12-24T01:53:51;23.70;65.60
39751;DHT22;37579;51.074;17.004;2022-12-24T01:56:19;23.80;65.50
39751;DHT22;37579;51.074;17.004;2022-12-24T01:58:47;23.80;66.10
39751;DHT22;37579;51.074;17.004;2022-12-24T02:01:16;23.80;65.30
39751;DHT22;37579;51.074;17.004;2022-12-24T02:03:42;23.80;65.40
39751;DHT22;37579;51.074;17.004;2022-12-24T02:06:09;23.70;65.50
39751;DHT22;37579;51.074;17.004;2022-12-24T02:08:40;23.70;65.60
39751;DHT22;37579;51.074;17.004;2022-12-24T02:11:16;23.70;65.30
39751;DHT22;37579;51.074;17.004;2022-12-24T02:13:46;23.70;65.30
39751;DHT22;37579;51.074;17.004;2022-12-24T02:19:26;23.70;65.40
39751;DHT22;37579;51.074;17.004;2022-12-24T02:25:22;23.70;65.20
39751;DHT22;37579;51.074;17.004;2022-12-24T02:35:51;23.60;65.30
39751;DHT22;37579;51.074;17.004;2022-12-24T02:41:29;23.60;65.30
39751;DHT22;37579;51.074;17.004;2022-12-24T02:44:14;23.60;65.20
39751;DHT22;37579;51.074;17.004;2022-12-24T02:46:42;23.70;65.10
39751;DHT22;37579;51.074;17.004;2022-12-24T02:49:08;23.60;65.40
39751;DHT22;37579;51.074;17.004;2022-12-24T02:51:34;23.60;65.50
39751;DHT22;37579;51.074;17.004;2022-12-24T02:54:00;23.60;65.40
39751;DHT22;37579;51.074;17.004;2022-12-24T02:56:48;23.60;65.40
39751;DHT22;37579;51.074;17.004;2022-12-24T03:04:51;23.60;65.40
39751;DHT22;37579;51.074;17.004;2022-12-24T03:07:33;23.50;65.40
39751;DHT22;37579;51.074;17.004;2022-12-24T03:10:13;23.50;65.40
39751;DHT22;37579;51.074;17.004;2022-12-24T03:12:45;23.50;65.40
39751;DHT22;37579;51.074;17.004;2022-12-24T03:15:15;23.50;65.30
39751;DHT22;37579;51.074;17.004;2022-12-24T03:17:44;23.50;65.30
39751;DHT22;37579;51.074;17.004;2022-12-24T03:20:16;23.50;65.40
39751;DHT22;37579;51.074;17.004;2022-12-24T03:22:43;23.50;65.30
39751;DHT22;37579;51.074;17.004;2022-12-24T03:25:09;23.50;65.20
39751;DHT22;37579;51.074;17.004;2022-12-24T03:27:36;23.50;65.30
39751;DHT22;37579;51.074;17.004;2022-12-24T03:30:09;23.50;65.30
39751;DHT22;37579;51.074;17.004;2022-12-24T03:32:35;23.50;65.30
39751;DHT22;37579;51.074;17.004;2022-12-24T03:35:01;23.50;65.20
39751;DHT22;37579;51.074;17.004;2022-12-24T03:37:27;23.50;65.10
39751;DHT22;37579;51.074;17.004;2022-12-24T03:39:53;23.50;65.10
39751;DHT22;37579;51.074;17.004;2022-12-24T03:42:18;23.50;65.30
39751;DHT22;37579;51.074;17.004;2022-12-24T03:44:44;23.50;65.20
39751;DHT22;37579;51.074;17.004;2022-12-24T03:47:10;23.50;65.10
39751;DHT22;37579;51.074;17.004;2022-12-24T03:49:36;23.50;65.20
39751;DHT22;37579;51.074;17.004;2022-12-24T03:52:02;23.50;65.00
39751;DHT22;37579;51.074;17.004;2022-12-24T03:54:27;23.40;65.10
39751;DHT22;37579;51.074;17.004;2022-12-24T03:56:53;23.40;65.10
39751;DHT22;37579;51.074;17.004;2022-12-24T03:59:19;23.50;65.10
39751;DHT22;37579;51.074;17.004;2022-12-24T04:01:45;23.50;65.00
39751;DHT22;37579;51.074;17.004;2022-12-24T04:04:11;23.50;65.10
39751;DHT22;37579;51.074;17.004;2022-12-24T04:06:37;23.40;65.10
39751;DHT22;37579;51.074;17.004;2022-12-24T04:09:03;23.40;65.10
39751;DHT22;37579;51.074;17.004;2022-12-24T04:11:30;23.40;65.10
39751;DHT22;37579;51.074;17.004;2022-12-24T04:13:56;23.40;65.10
39751;DHT22;37579;51.074;17.004;2022-12-24T04:16:22;23.50;65.00
39751;DHT22;37579;51.074;17.004;2022-12-24T04:18:48;23.50;64.90
39751;DHT22;37579;51.074;17.004;2022-12-24T04:21:14;23.40;64.90
39751;DHT22;37579;51.074;17.004;2022-12-24T04:23:41;23.40;64.90
39751;DHT22;37579;51.074;17.004;2022-12-24T04:26:09;23.40;65.00
39751;DHT22;37579;51.074;17.004;2022-12-24T04:28:35;23.40;65.00
39751;DHT22;37579;51.074;17.004;2022-12-24T04:31:07;23.40;64.90
39751;DHT22;37579;51.074;17.004;2022-12-24T04:33:34;23.40;64.90
39751;DHT22;37579;51.074;17.004;2022-12-24T04:36:01;23.40;64.90
39751;DHT22;37579;51.074;17.004;2022-12-24T04:38:27;23.40;64.70
39751;DHT22;37579;51.074;17.004;2022-12-24T04:41:40;23.50;64.50
39751;DHT22;37579;51.074;17.004;2022-12-24T04:43:47;23.60;64.10
39751;DHT22;37579;51.074;17.004;2022-12-24T04:46:18;23.70;63.70
39751;DHT22;37579;51.074;17.004;2022-12-24T04:48:46;23.80;63.30
39751;DHT22;37579;51.074;17.004;2022-12-24T04:51:12;23.90;63.10
39751;DHT22;37579;51.074;17.004;2022-12-24T04:53:39;23.90;62.90
39751;DHT22;37579;51.074;17.004;2022-12-24T04:56:17;23.90;62.80
39751;DHT22;37579;51.074;17.004;2022-12-24T04:58:43;24.00;62.70
39751;DHT22;37579;51.074;17.004;2022-12-24T05:01:18;24.00;62.50
39751;DHT22;37579;51.074;17.004;2022-12-24T05:03:44;24.10;62.50
39751;DHT22;37579;51.074;17.004;2022-12-24T05:06:13;24.10;62.40
39751;DHT22;37579;51.074;17.004;2022-12-24T05:08:39;24.00;62.30
39751;DHT22;37579;51.074;17.004;2022-12-24T05:11:05;24.10;62.30
39751;DHT22;37579;51.074;17.004;2022-12-24T05:13:32;24.10;62.20
39751;DHT22;37579;51.074;17.004;2022-12-24T05:15:58;24.10;62.10
39751;DHT22;37579;51.074;17.004;2022-12-24T05:18:24;24.10;62.10
39751;DHT22;37579;51.074;17.004;2022-12-24T05:20:50;24.10;62.10
39751;DHT22;37579;51.074;17.004;2022-12-24T05:23:18;24.10;62.00
39751;DHT22;37579;51.074;17.004;2022-12-24T05:26:07;24.10;62.00
39751;DHT22;37579;51.074;17.004;2022-12-24T05:28:50;24.10;61.90
39751;DHT22;37579;51.074;17.004;2022-12-24T05:31:17;24.10;61.90
39751;DHT22;37579;51.074;17.004;2022-12-24T05:33:44;24.10;61.80
39751;DHT22;37579;51.074;17.004;2022-12-24T05:36:10;24.10;61.80
39751;DHT22;37579;51.074;17.004;2022-12-24T05:38:36;24.10;61.70
39751;DHT22;37579;51.074;17.004;2022-12-24T05:41:02;24.10;61.70
39751;DHT22;37579;51.074;17.004;2022-12-24T05:43:28;24.10;61.60
39751;DHT22;37579;51.074;17.004;2022-12-24T05:45:59;24.10;61.70
39751;DHT22;37579;51.074;17.004;2022-12-24T05:48:25;24.10;61.60
39751;DHT22;37579;51.074;17.004;2022-12-24T05:50:51;24.10;61.70
39751;DHT22;37579;51.074;17.004;2022-12-24T05:53:17;24.10;61.60
39751;DHT22;37579;51.074;17.004;2022-12-24T05:55:43;24.00;61.60
39751;DHT22;37579;51.074;17.004;2022-12-24T05:58:08;24.10;61.70
39751;DHT22;37579;51.074;17.004;2022-12-24T06:00:34;24.10;61.70
39751;DHT22;37579;51.074;17.004;2022-12-24T06:03:00;24.00;61.60
39751;DHT22;37579;51.074;17.004;2022-12-24T06:05:26;24.10;61.60
39751;DHT22;37579;51.074;17.004;2022-12-24T06:07:52;24.00;61.60
39751;DHT22;37579;51.074;17.004;2022-12-24T06:10:18;24.00;61.60
39751;DHT22;37579;51.074;17.004;2022-12-24T06:12:44;24.00;61.70
39751;DHT22;37579;51.074;17.004;2022-12-24T06:15:10;24.00;61.80
39751;DHT22;37579;51.074;17.004;2022-12-24T06:17:36;24.00;61.70
39751;DHT22;37579;51.074;17.004;2022-12-24T06:20:03;24.00;61.60
39751;DHT22;37579;51.074;17.004;2022-12-24T06:22:29;24.00;61.50
39751;DHT22;37579;51.074;17.004;2022-12-24T06:24:54;24.10;61.40
39751;DHT22;37579;51.074;17.004;2022-12-24T06:27:20;24.10;61.30
39751;DHT22;37579;51.074;17.004;2022-12-24T06:29:46;24.10;61.30
39751;DHT22;37579;51.074;17.004;2022-12-24T06:32:12;24.10;61.30
39751;DHT22;37579;51.074;17.004;2022-12-24T06:34:38;24.10;61.20
39751;DHT22;37579;51.074;17.004;2022-12-24T06:37:03;24.10;61.10
39751;DHT22;37579;51.074;17.004;2022-12-24T06:39:29;24.20;61.80
39751;DHT22;37579;51.074;17.004;2022-12-24T06:41:55;24.20;61.10
39751;DHT22;37579;51.074;17.004;2022-12-24T06:44:21;24.20;61.10
39751;DHT22;37579;51.074;17.004;2022-12-24T06:46:47;24.10;61.10
39751;DHT22;37579;51.074;17.004;2022-12-24T06:49:12;24.20;61.00
39751;DHT22;37579;51.074;17.004;2022-12-24T06:51:38;24.20;61.00
39751;DHT22;37579;51.074;17.004;2022-12-24T06:54:04;24.30;60.90
39751;DHT22;37579;51.074;17.004;2022-12-24T06:56:30;24.20;60.90
39751;DHT22;37579;51.074;17.004;2022-12-24T06:58:55;24.20;60.90
39751;DHT22;37579;51.074;17.004;2022-12-24T07:01:21;24.20;60.80
39751;DHT22;37579;51.074;17.004;2022-12-24T07:03:49;24.30;60.70
39751;DHT22;37579;51.074;17.004;2022-12-24T07:06:24;24.30;60.70
39751;DHT22;37579;51.074;17.004;2022-12-24T07:08:50;24.20;60.60
39751;DHT22;37579;51.074;17.004;2022-12-24T07:11:16;24.20;60.70
39751;DHT22;37579;51.074;17.004;2022-12-24T07:13:42;24.20;60.70
39751;DHT22;37579;51.074;17.004;2022-12-24T07:16:08;24.30;60.70
39751;DHT22;37579;51.074;17.004;2022-12-24T07:18:33;24.30;60.60
39751;DHT22;37579;51.074;17.004;2022-12-24T07:21:01;24.30;60.50
39751;DHT22;37579;51.074;17.004;2022-12-24T07:23:27;24.30;60.50
39751;DHT22;37579;51.074;17.004;2022-12-24T07:25:53;24.30;60.50
39751;DHT22;37579;51.074;17.004;2022-12-24T07:28:19;24.30;60.60
39751;DHT22;37579;51.074;17.004;2022-12-24T07:30:45;24.30;60.50
39751;DHT22;37579;51.074;17.004;2022-12-24T07:33:12;24.30;60.50
39751;DHT22;37579;51.074;17.004;2022-12-24T07:35:38;24.20;60.40
39751;DHT22;37579;51.074;17.004;2022-12-24T07:38:04;24.30;60.50
39751;DHT22;37579;51.074;17.004;2022-12-24T07:40:29;24.30;60.30
39751;DHT22;37579;51.074;17.004;2022-12-24T07:42:55;24.30;60.20
39751;DHT22;37579;51.074;17.004;2022-12-24T07:45:21;24.30;60.10
39751;DHT22;37579;51.074;17.004;2022-12-24T07:47:47;24.40;60.10
39751;DHT22;37579;51.074;17.004;2022-12-24T07:50:12;24.40;60.00
39751;DHT22;37579;51.074;17.004;2022-12-24T07:52:38;24.40;60.00
39751;DHT22;37579;51.074;17.004;2022-12-24T07:55:04;24.30;60.00
39751;DHT22;37579;51.074;17.004;2022-12-24T07:57:30;24.30;59.90
39751;DHT22;37579;51.074;17.004;2022-12-24T07:59:56;24.30;59.90
39751;DHT22;37579;51.074;17.004;2022-12-24T08:02:22;24.30;59.90
39751;DHT22;37579;51.074;17.004;2022-12-24T08:04:48;24.30;60.00
39751;DHT22;37579;51.074;17.004;2022-12-24T08:07:14;24.30;59.90
39751;DHT22;37579;51.074;17.004;2022-12-24T08:09:39;24.30;60.00
39751;DHT22;37579;51.074;17.004;2022-12-24T08:12:05;24.30;59.90
39751;DHT22;37579;51.074;17.004;2022-12-24T08:14:31;24.30;60.00
39751;DHT22;37579;51.074;17.004;2022-12-24T08:16:57;24.20;59.80
39751;DHT22;37579;51.074;17.004;2022-12-24T08:19:23;24.20;59.80
39751;DHT22;37579;51.074;17.004;2022-12-24T08:21:49;24.30;59.80
39751;DHT22;37579;51.074;17.004;2022-12-24T08:24:15;24.20;59.70
39751;DHT22;37579;51.074;17.004;2022-12-24T08:26:41;24.20;59.70
39751;DHT22;37579;51.074;17.004;2022-12-24T08:29:07;24.20;59.80
39751;DHT22;37579;51.074;17.004;2022-12-24T08:31:33;24.20;59.80
39751;DHT22;37579;51.074;17.004;2022-12-24T08:34:06;24.20;59.80
39751;DHT22;37579;51.074;17.004;2022-12-24T08:36:33;24.10;59.70
39751;DHT22;37579;51.074;17.004;2022-12-24T08:38:59;24.20;59.80
39751;DHT22;37579;51.074;17.004;2022-12-24T08:41:31;24.10;60.00
39751;DHT22;37579;51.074;17.004;2022-12-24T08:43:57;24.20;60.00
39751;DHT22;37579;51.074;17.004;2022-12-24T08:46:23;24.20;59.90
39751;DHT22;37579;51.074;17.004;2022-12-24T08:48:49;24.20;59.90
39751;DHT22;37579;51.074;17.004;2022-12-24T08:51:15;24.20;59.90
39751;DHT22;37579;51.074;17.004;2022-12-24T08:53:41;24.20;60.00
39751;DHT22;37579;51.074;17.004;2022-12-24T08:56:08;24.20;60.20
39751;DHT22;37579;51.074;17.004;2022-12-24T08:58:35;24.20;60.20
39751;DHT22;37579;51.074;17.004;2022-12-24T09:01:10;24.20;60.30
39751;DHT22;37579;51.074;17.004;2022-12-24T09:03:36;24.30;60.30
39751;DHT22;37579;51.074;17.004;2022-12-24T09:06:06;24.30;60.50
39751;DHT22;37579;51.074;17.004;2022-12-24T09:08:32;24.30;60.50
39751;DHT22;37579;51.074;17.004;2022-12-24T09:11:17;24.30;60.60
39751;DHT22;37579;51.074;17.004;2022-12-24T09:13:43;24.30;60.50
39751;DHT22;37579;51.074;17.004;2022-12-24T09:16:09;24.40;60.50
39751;DHT22;37579;51.074;17.004;2022-12-24T09:18:36;24.30;60.60
39751;DHT22;37579;51.074;17.004;2022-12-24T09:21:13;24.30;60.60
39751;DHT22;37579;51.074;17.004;2022-12-24T09:23:40;24.40;60.50
39751;DHT22;37579;51.074;17.004;2022-12-24T09:26:18;24.40;60.60
39751;DHT22;37579;51.074;17.004;2022-12-24T09:28:44;24.40;60.60
39751;DHT22;37579;51.074;17.004;2022-12-24T09:31:11;24.40;60.50
39751;DHT22;37579;51.074;17.004;2022-12-24T09:33:40;24.40;60.40
39751;DHT22;37579;51.074;17.004;2022-12-24T09:36:07;24.40;60.50
39751;DHT22;37579;51.074;17.004;2022-12-24T09:38:34;24.30;60.70
39751;DHT22;37579;51.074;17.004;2022-12-24T09:41:00;24.40;60.70
39751;DHT22;37579;51.074;17.004;2022-12-24T09:43:30;24.40;60.80
39751;DHT22;37579;51.074;17.004;2022-12-24T09:48:27;24.50;60.40
39751;DHT22;37579;51.074;17.004;2022-12-24T09:56:46;24.50;60.20
39751;DHT22;37579;51.074;17.004;2022-12-24T09:59:16;24.50;60.20
39751;DHT22;37579;51.074;17.004;2022-12-24T10:01:42;24.50;60.30
39751;DHT22;37579;51.074;17.004;2022-12-24T10:04:19;24.50;60.20
39751;DHT22;37579;51.074;17.004;2022-12-24T10:12:19;24.50;60.50
39751;DHT22;37579;51.074;17.004;2022-12-24T10:31:08;24.20;60.40
39751;DHT22;37579;51.074;17.004;2022-12-24T10:33:41;24.20;60.30
39751;DHT22;37579;51.074;17.004;2022-12-24T10:36:13;24.20;60.20
39751;DHT22;37579;51.074;17.004;2022-12-24T10:38:39;24.30;59.80
39751;DHT22;37579;51.074;17.004;2022-12-24T10:41:06;24.20;59.80
39751;DHT22;37579;51.074;17.004;2022-12-24T10:43:33;24.20;59.90
39751;DHT22;37579;51.074;17.004;2022-12-24T10:49:02;24.10;59.30
39751;DHT22;37579;51.074;17.004;2022-12-24T10:51:39;24.20;59.00
39751;DHT22;37579;51.074;17.004;2022-12-24T10:54:13;24.30;58.70
39751;DHT22;37579;51.074;17.004;2022-12-24T10:56:48;24.30;58.60
39751;DHT22;37579;51.074;17.004;2022-12-24T10:59:30;24.40;58.60
39751;DHT22;37579;51.074;17.004;2022-12-24T11:01:58;24.40;58.60
39751;DHT22;37579;51.074;17.004;2022-12-24T11:04:27;24.30;58.70
39751;DHT22;37579;51.074;17.004;2022-12-24T11:07:02;24.30;59.50
39751;DHT22;37579;51.074;17.004;2022-12-24T11:09:31;24.20;58.90
39751;DHT22;37579;51.074;17.004;2022-12-24T11:11:58;24.20;58.90
39751;DHT22;37579;51.074;17.004;2022-12-24T11:14:26;24.20;58.50
39751;DHT22;37579;51.074;17.004;2022-12-24T11:16:55;24.30;58.40
39751;DHT22;37579;51.074;17.004;2022-12-24T11:19:36;24.30;58.30
39751;DHT22;37579;51.074;17.004;2022-12-24T11:22:17;24.30;58.20
39751;DHT22;37579;51.074;17.004;2022-12-24T11:24:44;24.30;57.90
39751;DHT22;37579;51.074;17.004;2022-12-24T11:30:31;24.30;57.70
39751;DHT22;37579;51.074;17.004;2022-12-24T11:35:28;24.30;57.40
39751;DHT22;37579;51.074;17.004;2022-12-24T11:43:04;24.20;56.30
39751;DHT22;37579;51.074;17.004;2022-12-24T11:45:32;24.10;56.30
39751;DHT22;37579;51.074;17.004;2022-12-24T11:47:59;24.10;57.00
39751;DHT22;37579;51.074;17.004;2022-12-24T11:50:32;24.10;56.40
39751;DHT22;37579;51.074;17.004;2022-12-24T12:03:44;24.30;56.20
39751;DHT22;37579;51.074;17.004;2022-12-24T12:06:49;24.30;55.80
39751;DHT22;37579;51.074;17.004;2022-12-24T12:09:29;24.30;55.80
39751;DHT22;37579;51.074;17.004;2022-12-24T12:12:06;24.40;56.70
39751;DHT22;37579;51.074;17.004;2022-12-24T12:14:38;24.50;55.20
39751;DHT22;37579;51.074;17.004;2022-12-24T12:17:43;24.50;55.80
39751;DHT22;37579;51.074;17.004;2022-12-24T12:23:41;24.30;56.40
39751;DHT22;37579;51.074;17.004;2022-12-24T12:39:18;24.60;56.70
39751;DHT22;37579;51.074;17.004;2022-12-24T13:00:53;24.70;56.40
39751;DHT22;37579;51.074;17.004;2022-12-24T13:20:32;24.80;56.40
39751;DHT22;37579;51.074;17.004;2022-12-24T13:23:00;24.70;54.20
39751;DHT22;37579;51.074;17.004;2022-12-24T13:25:34;24.60;55.10
39751;DHT22;37579;51.074;17.004;2022-12-24T13:30:45;24.40;53.70
39751;DHT22;37579;51.074;17.004;2022-12-24T13:33:44;24.40;54.10
39751;DHT22;37579;51.074;17.004;2022-12-24T13:36:01;24.40;53.70
39751;DHT22;37579;51.074;17.004;2022-12-24T13:40:53;24.40;53.80
39751;DHT22;37579;51.074;17.004;2022-12-24T13:43:19;24.50;54.80
39751;DHT22;37579;51.074;17.004;2022-12-24T13:45:47;24.50;53.80
39751;DHT22;37579;51.074;17.004;2022-12-24T13:48:30;24.40;53.70
39751;DHT22;37579;51.074;17.004;2022-12-24T13:51:23;24.50;54.60
39751;DHT22;37579;51.074;17.004;2022-12-24T13:53:49;24.60;54.40
39751;DHT22;37579;51.074;17.004;2022-12-24T13:56:24;24.60;54.50
39751;DHT22;37579;51.074;17.004;2022-12-24T13:59:25;24.60;54.70
39751;DHT22;37579;51.074;17.004;2022-12-24T14:01:55;24.60;54.80
39751;DHT22;37579;51.074;17.004;2022-12-24T14:04:25;24.60;54.80
39751;DHT22;37579;51.074;17.004;2022-12-24T14:06:53;24.60;54.90
39751;DHT22;37579;51.074;17.004;2022-12-24T14:09:23;24.60;55.00
39751;DHT22;37579;51.074;17.004;2022-12-24T14:14:33;24.70;55.50
39751;DHT22;37579;51.074;17.004;2022-12-24T14:17:00;24.70;55.80
39751;DHT22;37579;51.074;17.004;2022-12-24T14:19:39;24.70;56.10
39751;DHT22;37579;51.074;17.004;2022-12-24T14:25:30;24.40;55.50
39751;DHT22;37579;51.074;17.004;2022-12-24T14:28:10;24.40;55.80
39751;DHT22;37579;51.074;17.004;2022-12-24T14:30:38;24.60;55.70
39751;DHT22;37579;51.074;17.004;2022-12-24T14:33:04;24.60;55.70
39751;DHT22;37579;51.074;17.004;2022-12-24T14:35:35;24.70;55.70
39751;DHT22;37579;51.074;17.004;2022-12-24T14:38:04;24.70;55.80
39751;DHT22;37579;51.074;17.004;2022-12-24T14:40:36;24.60;56.20
39751;DHT22;37579;51.074;17.004;2022-12-24T14:48:46;24.40;57.10
39751;DHT22;37579;51.074;17.004;2022-12-24T14:51:39;24.30;57.30
39751;DHT22;37579;51.074;17.004;2022-12-24T14:54:13;24.20;57.40
39751;DHT22;37579;51.074;17.004;2022-12-24T14:56:42;24.20;57.50
39751;DHT22;37579;51.074;17.004;2022-12-24T14:59:16;24.10;57.50
39751;DHT22;37579;51.074;17.004;2022-12-24T15:01:43;24.10;57.60
39751;DHT22;37579;51.074;17.004;2022-12-24T15:06:57;24.00;57.60
39751;DHT22;37579;51.074;17.004;2022-12-24T15:09:29;24.00;57.60
39751;DHT22;37579;51.074;17.004;2022-12-24T15:11:58;24.00;58.20
39751;DHT22;37579;51.074;17.004;2022-12-24T15:14:26;24.10;57.40
39751;DHT22;37579;51.074;17.004;2022-12-24T15:16:56;24.10;57.40
39751;DHT22;37579;51.074;17.004;2022-12-24T15:19:30;24.10;57.40
39751;DHT22;37579;51.074;17.004;2022-12-24T15:21:57;24.10;57.50
39751;DHT22;37579;51.074;17.004;2022-12-24T15:24:24;24.10;57.40
39751;DHT22;37579;51.074;17.004;2022-12-24T15:26:50;24.10;57.40
39751;DHT22;37579;51.074;17.004;2022-12-24T15:29:27;24.10;57.40
39751;DHT22;37579;51.074;17.004;2022-12-24T15:31:55;24.10;57.50
39751;DHT22;37579;51.074;17.004;2022-12-24T15:34:28;24.10;57.50
39751;DHT22;37579;51.074;17.004;2022-12-24T15:39:44;24.10;57.40
39751;DHT22;37579;51.074;17.004;2022-12-24T15:42:16;24.10;57.10
39751;DHT22;37579;51.074;17.004;2022-12-24T15:47:28;24.20;57.00
39751;DHT22;37579;51.074;17.004;2022-12-24T15:49:55;24.20;56.90
39751;DHT22;37579;51.074;17.004;2022-12-24T15:52:23;24.30;56.80
39751;DHT22;37579;51.074;17.004;2022-12-24T15:54:50;24.30;56.90
39751;DHT22;37579;51.074;17.004;2022-12-24T15:57:24;24.30;56.90
39751;DHT22;37579;51.074;17.004;2022-12-24T15:59:55;24.30;56.90
39751;DHT22;37579;51.074;17.004;2022-12-24T16:02:41;24.20;56.90
39751;DHT22;37579;51.074;17.004;2022-12-24T16:05:36;24.20;57.00
39751;DHT22;37579;51.074;17.004;2022-12-24T16:10:42;24.30;56.90
39751;DHT22;37579;51.074;17.004;2022-12-24T16:13:15;24.30;57.00
39751;DHT22;37579;51.074;17.004;2022-12-24T16:15:48;24.30;56.90
39751;DHT22;37579;51.074;17.004;2022-12-24T16:18:19;24.30;56.90
39751;DHT22;37579;51.074;17.004;2022-12-24T16:20:50;24.30;56.90
39751;DHT22;37579;51.074;17.004;2022-12-24T16:23:19;24.30;56.90
39751;DHT22;37579;51.074;17.004;2022-12-24T16:25:45;24.30;57.00
39751;DHT22;37579;51.074;17.004;2022-12-24T16:28:11;24.20;57.00
39751;DHT22;37579;51.074;17.004;2022-12-24T16:30:37;24.20;57.10
39751;DHT22;37579;51.074;17.004;2022-12-24T16:33:04;24.30;57.00
39751;DHT22;37579;51.074;17.004;2022-12-24T16:35:31;24.20;56.90
39751;DHT22;37579;51.074;17.004;2022-12-24T16:38:03;24.20;56.90
39751;DHT22;37579;51.074;17.004;2022-12-24T16:40:29;24.20;56.90
39751;DHT22;37579;51.074;17.004;2022-12-24T16:42:56;24.20;56.90
39751;DHT22;37579;51.074;17.004;2022-12-24T16:45:41;24.20;56.90
39751;DHT22;37579;51.074;17.004;2022-12-24T16:48:07;24.20;57.00
39751;DHT22;37579;51.074;17.004;2022-12-24T16:50:34;24.20;57.00
39751;DHT22;37579;51.074;17.004;2022-12-24T16:52:59;24.20;57.00
39751;DHT22;37579;51.074;17.004;2022-12-24T16:55:25;24.20;56.90
39751;DHT22;37579;51.074;17.004;2022-12-24T16:57:51;24.30;56.90
39751;DHT22;37579;51.074;17.004;2022-12-24T17:00:20;24.20;56.90
39751;DHT22;37579;51.074;17.004;2022-12-24T17:02:47;24.20;56.90
39751;DHT22;37579;51.074;17.004;2022-12-24T17:05:13;24.20;56.90
39751;DHT22;37579;51.074;17.004;2022-12-24T17:07:39;24.20;57.00
39751;DHT22;37579;51.074;17.004;2022-12-24T17:10:08;24.20;57.00
39751;DHT22;37579;51.074;17.004;2022-12-24T17:12:35;24.20;57.00
39751;DHT22;37579;51.074;17.004;2022-12-24T17:15:00;24.20;57.00
39751;DHT22;37579;51.074;17.004;2022-12-24T17:17:28;24.20;57.00
39751;DHT22;37579;51.074;17.004;2022-12-24T17:19:56;24.20;57.00
39751;DHT22;37579;51.074;17.004;2022-12-24T17:22:22;24.20;57.00
39751;DHT22;37579;51.074;17.004;2022-12-24T17:24:48;24.20;57.00
39751;DHT22;37579;51.074;17.004;2022-12-24T17:27:14;24.20;57.00
39751;DHT22;37579;51.074;17.004;2022-12-24T17:29:41;24.20;57.00
39751;DHT22;37579;51.074;17.004;2022-12-24T17:32:06;24.20;56.90
39751;DHT22;37579;51.074;17.004;2022-12-24T17:34:32;24.20;57.10
39751;DHT22;37579;51.074;17.004;2022-12-24T17:36:58;24.20;57.10
39751;DHT22;37579;51.074;17.004;2022-12-24T17:39:24;24.20;57.00
39751;DHT22;37579;51.074;17.004;2022-12-24T17:41:50;24.20;57.10
39751;DHT22;37579;51.074;17.004;2022-12-24T17:44:16;24.20;57.10
39751;DHT22;37579;51.074;17.004;2022-12-24T17:46:42;24.20;57.10
39751;DHT22;37579;51.074;17.004;2022-12-24T17:49:07;24.20;57.10
39751;DHT22;37579;51.074;17.004;2022-12-24T17:51:33;24.20;57.10
39751;DHT22;37579;51.074;17.004;2022-12-24T17:54:00;24.20;57.10
39751;DHT22;37579;51.074;17.004;2022-12-24T17:56:27;24.20;57.10
39751;DHT22;37579;51.074;17.004;2022-12-24T17:58:53;24.20;57.10
39751;DHT22;37579;51.074;17.004;2022-12-24T18:01:22;24.20;57.10
39751;DHT22;37579;51.074;17.004;2022-12-24T18:03:49;24.20;57.00
39751;DHT22;37579;51.074;17.004;2022-12-24T18:06:16;24.20;57.10
39751;DHT22;37579;51.074;17.004;2022-12-24T18:08:44;24.20;57.00